Time;durP1;ratioP1;P1;durP2;ratioP2;P2;SDS_P1;SDS_P2;PMS_P1;PMS_P2;Temp;Humidity;BMP_temperature;BMP_pressure;BME280_temperature;BME280_humidity;BME280_pressure;Samples;Min_cycle;Max_cycle;Signal;HPM_P1;HPM_P2
2022/01/08 00:00:08;;;;;;;4.68;2.13;;;;;;;-4.44;64.34;99273.84;5044208;28;20306;-62
2022/01/08 00:02:34;;;;;;;2.80;2.00;;;;;;;-4.55;63.90;99265.91;5048929;28;20314;-61
2022/01/08 00:05:00;;;;;;;4.22;2.25;;;;;;;-4.55;63.23;99269.28;5037116;28;20072;-61
2022/01/08 00:07:26;;;;;;;2.50;2.30;;;;;;;-4.45;63.95;99278.00;5042854;28;20075;-62
2022/01/08 00:09:52;;;;;;;2.17;1.88;;;;;;;-4.35;63.96;99276.63;5045005;28;20210;-61
2022/01/08 00:12:17;;;;;;;4.20;2.47;;;;;;;-4.40;63.66;99276.50;5060040;28;20032;-65
2022/01/08 00:14:43;;;;;;;3.17;2.25;;;;;;;-4.36;64.22;99285.03;5044331;28;20045;-61
2022/01/08 00:17:08;;;;;;;3.35;2.20;;;;;;;-4.26;65.44;99299.69;5044808;28;20123;-61
2022/01/08 00:19:34;;;;;;;5.25;2.60;;;;;;;-4.36;65.38;99298.53;5061578;28;20039;-62
2022/01/08 00:22:00;;;;;;;2.70;2.22;;;;;;;-4.57;64.75;99307.94;5041754;28;20333;-62
2022/01/08 00:24:25;;;;;;;2.75;2.20;;;;;;;-4.40;65.87;99306.81;5042979;28;20030;-61
2022/01/08 00:26:51;;;;;;;3.25;2.28;;;;;;;-4.49;64.53;99314.09;5043769;28;20092;-61
2022/01/08 00:29:16;;;;;;;3.63;3.00;;;;;;;-4.53;65.42;99327.47;5045435;28;20029;-61
2022/01/08 00:31:42;;;;;;;3.28;2.38;;;;;;;-4.59;64.74;99325.59;5050985;28;20036;-62
2022/01/08 00:34:08;;;;;;;3.50;2.83;;;;;;;-4.43;64.83;99329.47;5055857;28;20024;-62
2022/01/08 00:36:33;;;;;;;5.47;2.92;;;;;;;-4.61;65.71;99328.88;5055840;28;20041;-61
2022/01/08 00:38:59;;;;;;;2.85;2.15;;;;;;;-4.61;67.74;99328.88;5041829;28;20044;-62
2022/01/08 00:41:25;;;;;;;3.40;2.35;;;;;;;-4.54;67.40;99334.16;5038965;28;20056;-61
2022/01/08 00:43:51;;;;;;;6.10;2.78;;;;;;;-4.49;65.66;99336.84;5059788;28;20079;-61
2022/01/08 00:46:17;;;;;;;6.38;2.88;;;;;;;-4.57;65.83;99320.59;5040490;28;20041;-61
2022/01/08 00:48:44;;;;;;;3.92;2.80;;;;;;;-4.51;66.15;99334.25;5054867;28;20028;-60
2022/01/08 00:51:10;;;;;;;3.28;2.22;;;;;;;-4.42;66.48;99343.81;5046782;28;20059;-61
2022/01/08 00:53:36;;;;;;;3.80;2.38;;;;;;;-4.57;66.00;99350.91;5049373;28;20032;-60
2022/01/08 00:56:01;;;;;;;3.35;2.13;;;;;;;-4.66;66.75;99343.00;5051287;28;20326;-61
2022/01/08 00:58:27;;;;;;;3.17;2.50;;;;;;;-4.56;67.83;99355.13;5046050;28;20033;-61
2022/01/08 01:00:53;;;;;;;2.28;1.85;;;;;;;-4.74;67.38;99350.31;5055630;28;20199;-61
2022/01/08 01:03:18;;;;;;;1.90;1.80;;;;;;;-4.69;66.80;99356.38;5042418;28;20033;-63
2022/01/08 01:05:44;;;;;;;3.92;2.08;;;;;;;-4.66;68.58;99363.19;5041704;28;20041;-61
2022/01/08 01:08:10;;;;;;;2.88;2.03;;;;;;;-4.76;67.99;99367.97;5059249;28;20336;-61
2022/01/08 01:10:35;;;;;;;2.60;2.05;;;;;;;-4.77;67.61;99373.81;5041269;28;20052;-60
2022/01/08 01:13:01;;;;;;;3.17;2.10;;;;;;;-4.84;66.27;99371.88;5042437;28;20045;-60
2022/01/08 01:15:26;;;;;;;2.75;2.20;;;;;;;-4.78;67.18;99372.06;5052505;28;20048;-60
2022/01/08 01:17:52;;;;;;;3.33;2.20;;;;;;;-4.81;67.24;99374.50;5047804;28;20322;-61
2022/01/08 01:20:20;;;;;;;2.88;2.20;;;;;;;-4.70;67.42;99392.56;5042211;28;20050;-61
2022/01/08 01:22:54;;;;;;;2.10;1.90;;;;;;;-4.77;66.24;99404.13;5045957;28;20032;-61
2022/01/08 01:25:26;;;;;;;2.22;2.03;;;;;;;-4.85;68.12;99403.81;5056302;28;20155;-61
2022/01/08 01:30:27;;;;;;;3.03;2.10;;;;;;;-4.91;67.02;99401.09;5056166;28;20033;-61
2022/01/08 01:42:33;;;;;;;4.43;2.35;;;;;;;-4.65;66.73;99416.31;5027818;28;20314;-61
2022/01/08 01:49:13;;;;;;;3.33;2.22;;;;;;;-4.65;64.08;99428.09;5044054;28;20021;-62
2022/01/08 01:51:39;;;;;;;3.42;1.98;;;;;;;-4.69;65.44;99424.56;5044010;28;20045;-62
2022/01/08 01:54:04;;;;;;;2.97;2.30;;;;;;;-4.68;65.43;99429.69;5042986;28;20036;-61
2022/01/08 01:56:30;;;;;;;2.28;1.80;;;;;;;-4.70;62.85;99438.88;5043129;28;20357;-60
2022/01/08 01:58:56;;;;;;;3.08;1.90;;;;;;;-4.72;65.08;99435.47;5056338;28;20109;-62
2022/01/08 02:01:22;;;;;;;2.70;2.33;;;;;;;-4.78;65.63;99439.41;5054867;28;20333;-61
2022/01/08 02:03:47;;;;;;;2.92;2.05;;;;;;;-4.83;63.99;99443.44;5051665;28;20090;-61
2022/01/08 02:06:14;;;;;;;2.85;2.00;;;;;;;-4.82;63.60;99432.53;5057860;28;20063;-60
2022/01/08 02:08:41;;;;;;;2.55;2.10;;;;;;;-4.78;63.68;99445.31;5054377;28;20041;-61
2022/01/08 02:11:07;;;;;;;2.38;1.90;;;;;;;-4.79;63.02;99455.38;5044137;28;20052;-60
2022/01/08 02:13:34;;;;;;;3.53;2.00;;;;;;;-4.79;63.06;99433.50;5058238;28;20032;-61
2022/01/08 02:16:01;;;;;;;3.45;2.33;;;;;;;-4.71;62.63;99457.38;5042423;28;20056;-61
2022/01/08 02:18:28;;;;;;;2.78;2.17;;;;;;;-4.78;62.54;99467.19;5057821;28;20072;-62
2022/01/08 02:20:55;;;;;;;2.75;1.88;;;;;;;-4.70;62.77;99470.88;5058412;28;20096;-61
2022/01/08 02:23:21;;;;;;;3.17;2.00;;;;;;;-4.55;62.46;99480.66;5057389;28;20063;-61
2022/01/08 02:25:46;;;;;;;1.80;1.70;;;;;;;-4.57;62.56;99484.81;5057367;28;20041;-61
2022/01/08 02:28:12;;;;;;;3.15;1.77;;;;;;;-4.62;63.09;99496.41;5057505;28;20036;-60
2022/01/08 02:30:37;;;;;;;2.78;1.92;;;;;;;-4.72;62.89;99488.50;5050875;28;20260;-61
2022/01/08 02:33:03;;;;;;;2.03;1.60;;;;;;;-4.64;61.29;99513.19;5043896;28;20033;-62
2022/01/08 02:35:29;;;;;;;3.47;2.00;;;;;;;-4.63;62.05;99502.25;5024296;28;20025;-61
2022/01/08 02:37:54;;;;;;;2.50;1.80;;;;;;;-4.71;61.24;99515.47;5045729;28;20025;-61
2022/01/08 02:40:21;;;;;;;4.55;1.70;;;;;;;-4.75;61.75;99523.72;5063976;28;20047;-61
2022/01/08 02:42:54;;;;;;;2.40;1.95;;;;;;;-5.05;61.51;99471.28;5044067;28;20261;-61
2022/01/08 02:45:21;;;;;;;2.50;1.75;;;;;;;-4.93;60.96;99486.03;5063856;28;20095;-61
2022/01/08 02:47:48;;;;;;;3.30;1.80;;;;;;;-5.01;61.66;99456.25;5061614;28;20260;-61
2022/01/08 02:50:15;;;;;;;2.05;1.70;;;;;;;-4.58;63.94;99528.56;5061646;28;20202;-62
2022/01/08 02:52:45;;;;;;;2.33;1.80;;;;;;;-4.83;61.70;99532.72;5061457;28;20092;-61
2022/01/08 02:55:13;;;;;;;2.95;1.88;;;;;;;-5.04;64.36;99467.09;5059977;28;20060;-60
2022/01/08 02:57:39;;;;;;;2.60;2.10;;;;;;;-4.60;62.01;99531.03;5060356;28;20029;-59
2022/01/08 03:00:07;;;;;;;1.83;1.60;;;;;;;-4.61;62.59;99536.03;5061223;28;20043;-65
2022/01/08 03:02:32;;;;;;;2.00;1.80;;;;;;;-4.62;63.42;99539.34;5054307;28;20025;-60
2022/01/08 03:04:58;;;;;;;4.40;2.10;;;;;;;-4.51;63.42;99550.72;5046118;28;20024;-60
2022/01/08 03:07:24;;;;;;;2.13;1.73;;;;;;;-4.60;64.16;99542.78;5045420;28;20030;-60
2022/01/08 03:09:58;;;;;;;3.75;1.88;;;;;;;-4.53;64.20;99547.28;5045863;28;20069;-60
2022/01/08 03:12:27;;;;;;;2.85;1.73;;;;;;;-4.57;63.83;99551.34;5045904;28;20071;-61
2022/01/08 03:14:53;;;;;;;2.80;2.10;;;;;;;-4.62;63.90;99557.03;5046795;28;20029;-60
2022/01/08 03:17:19;;;;;;;3.90;2.28;;;;;;;-4.62;64.04;99562.09;5046513;28;20610;-60
2022/01/08 03:19:45;;;;;;;2.38;1.70;;;;;;;-4.47;64.26;99577.81;5057436;28;20037;-60
2022/01/08 03:22:11;;;;;;;4.60;1.70;;;;;;;-4.63;64.63;99580.56;5050736;28;20279;-60
2022/01/08 03:24:38;;;;;;;2.00;1.80;;;;;;;-4.60;64.30;99578.16;5052931;28;20033;-60
2022/01/08 03:27:04;;;;;;;2.15;1.92;;;;;;;-4.61;65.14;99579.81;5060438;28;20025;-60
2022/01/08 03:29:30;;;;;;;1.98;1.70;;;;;;;-4.58;64.45;99587.50;5058330;28;20036;-61
2022/01/08 03:31:55;;;;;;;2.67;1.67;;;;;;;-4.46;65.47;99588.78;5044894;28;20041;-61
2022/01/08 03:34:21;;;;;;;2.38;1.83;;;;;;;-4.38;65.08;99593.31;5051601;28;20029;-60
2022/01/08 03:36:46;;;;;;;2.08;1.88;;;;;;;-4.50;64.66;99590.34;5045270;28;20035;-61
2022/01/08 03:39:12;;;;;;;3.08;2.22;;;;;;;-4.49;65.54;99579.41;5061595;28;20041;-61
2022/01/08 03:41:38;;;;;;;3.65;1.90;;;;;;;-4.32;66.28;99590.16;5045940;28;20033;-61
2022/01/08 03:44:04;;;;;;;3.03;2.13;;;;;;;-4.30;64.00;99597.78;5055455;28;20025;-60
2022/01/08 03:46:34;;;;;;;5.85;2.15;;;;;;;-4.33;65.89;99585.91;5060103;28;20087;-61
2022/01/08 03:51:28;;;;;;;2.90;2.22;;;;;;;-4.20;65.03;99602.41;5054716;28;20310;-61
2022/01/08 03:53:54;;;;;;;3.05;2.30;;;;;;;-4.18;66.33;99608.34;5048675;28;20032;-61
2022/01/08 03:56:19;;;;;;;4.22;2.22;;;;;;;-4.23;66.18;99605.66;5059966;28;20100;-61
2022/01/08 03:58:45;;;;;;;3.13;2.20;;;;;;;-4.29;65.41;99622.25;5060346;28;20030;-60
2022/01/08 04:01:11;;;;;;;4.18;2.40;;;;;;;-4.42;65.84;99619.25;5043173;28;20143;-61
2022/01/08 04:03:36;;;;;;;2.30;2.10;;;;;;;-4.29;67.01;99607.09;5061949;28;20037;-60
2022/01/08 04:06:02;;;;;;;4.68;2.40;;;;;;;-4.30;65.98;99598.66;5044411;28;20037;-61
2022/01/08 04:08:28;;;;;;;3.13;2.45;;;;;;;-4.21;67.00;99610.78;5045262;28;20041;-60
2022/01/08 04:10:53;;;;;;;3.22;2.40;;;;;;;-4.11;66.34;99617.88;5055382;28;20028;-61
2022/01/08 04:13:24;;;;;;;2.33;2.08;;;;;;;-4.21;66.17;99628.47;5052242;28;20322;-60
2022/01/08 04:15:53;;;;;;;3.75;2.40;;;;;;;-4.14;66.67;99627.03;5051202;28;20048;-61
2022/01/08 04:18:19;;;;;;;3.55;2.50;;;;;;;-4.13;66.85;99624.56;5059492;28;20041;-61
2022/01/08 04:23:36;;;;;;;2.65;2.15;;;;;;;-4.19;67.29;99629.38;5055540;28;20249;-61
2022/01/08 04:26:03;;;;;;;3.25;2.30;;;;;;;-4.37;68.25;99617.78;5045956;28;20021;-60
2022/01/08 04:28:29;;;;;;;1.98;1.77;;;;;;;-4.31;68.87;99634.00;5059648;28;20045;-61
2022/01/08 04:30:54;;;;;;;2.22;1.80;;;;;;;-4.17;69.62;99641.28;5062053;28;20036;-60
2022/01/08 04:33:20;;;;;;;3.05;2.30;;;;;;;-4.19;68.59;99642.00;5055494;28;20029;-61
2022/01/08 04:35:45;;;;;;;4.20;2.53;;;;;;;-4.27;70.06;99628.25;5043140;28;20076;-61
2022/01/08 04:38:12;;;;;;;3.63;2.20;;;;;;;-4.16;68.67;99648.06;5057072;28;20075;-61
2022/01/08 04:40:38;;;;;;;2.45;2.03;;;;;;;-4.14;68.90;99642.22;5057826;28;20086;-61
2022/01/08 04:43:04;;;;;;;3.85;1.92;;;;;;;-4.39;68.27;99639.63;5059369;28;20061;-60
2022/01/08 04:45:30;;;;;;;3.25;2.05;;;;;;;-4.41;70.30;99643.75;5059051;28;20100;-60
2022/01/08 04:47:58;;;;;;;4.05;2.10;;;;;;;-4.23;69.55;99653.69;5059055;28;20104;-60
2022/01/08 04:50:24;;;;;;;3.42;2.05;;;;;;;-4.20;69.53;99655.47;5058906;28;20031;-61
2022/01/08 04:52:50;;;;;;;2.70;2.20;;;;;;;-4.28;68.28;99661.91;5051743;28;20032;-60
2022/01/08 04:55:16;;;;;;;2.47;1.92;;;;;;;-4.20;67.99;99668.13;5043853;28;20119;-61
2022/01/08 04:57:42;;;;;;;2.08;1.80;;;;;;;-4.25;69.06;99662.03;5061151;28;20040;-61
2022/01/08 05:00:08;;;;;;;1.90;1.67;;;;;;;-4.27;66.59;99661.13;5058807;28;20101;-60
2022/01/08 05:02:34;;;;;;;2.20;1.67;;;;;;;-4.34;66.90;99675.19;5045826;28;20032;-61
2022/01/08 05:04:59;;;;;;;1.45;1.35;;;;;;;-4.20;67.15;99675.72;5044829;28;20033;-61
2022/01/08 05:07:25;;;;;;;1.65;1.52;;;;;;;-4.17;67.32;99681.72;5044660;28;20238;-61
2022/01/08 05:09:50;;;;;;;1.63;1.33;;;;;;;-4.21;66.69;99684.09;5044512;28;20279;-61
2022/01/08 05:12:16;;;;;;;3.67;1.48;;;;;;;-4.32;67.14;99687.88;5047840;28;20039;-61
2022/01/08 05:14:44;;;;;;;2.58;1.73;;;;;;;-4.38;67.24;99699.47;5057315;28;20037;-61
2022/01/08 05:17:10;;;;;;;3.92;1.63;;;;;;;-4.44;65.29;99680.69;5043762;28;20029;-60
2022/01/08 05:19:46;;;;;;;2.53;1.75;;;;;;;-4.27;67.30;99696.50;5058905;28;20044;-60
2022/01/08 05:22:20;;;;;;;1.80;1.60;;;;;;;-4.28;67.21;99707.41;5060591;28;20094;-60
2022/01/08 05:24:46;;;;;;;1.45;1.35;;;;;;;-4.39;66.91;99712.94;5043292;28;20040;-62
2022/01/08 05:27:15;;;;;;;1.63;1.40;;;;;;;-4.46;68.02;99721.06;5044187;28;20037;-60
2022/01/08 05:29:42;;;;;;;2.53;1.42;;;;;;;-4.40;68.52;99723.81;5043074;28;20033;-60
2022/01/08 05:32:08;;;;;;;2.25;1.45;;;;;;;-4.29;66.16;99734.38;5055543;28;20298;-60
2022/01/08 05:34:33;;;;;;;1.80;1.40;;;;;;;-4.20;66.93;99739.75;5056851;28;20100;-60
2022/01/08 05:36:59;;;;;;;1.70;1.60;;;;;;;-4.15;66.54;99737.41;5055631;28;20039;-60
2022/01/08 05:39:25;;;;;;;1.63;1.42;;;;;;;-4.16;66.32;99741.63;5057944;28;20264;-62
2022/01/08 05:41:50;;;;;;;1.85;1.30;;;;;;;-4.30;66.96;99762.97;5058163;28;20095;-60
2022/01/08 05:44:16;;;;;;;2.05;1.65;;;;;;;-4.26;66.81;99749.66;5057769;28;20095;-62
2022/01/08 05:46:44;;;;;;;3.10;1.65;;;;;;;-4.26;67.46;99753.81;5050146;28;20123;-59
2022/01/08 05:49:12;;;;;;;2.28;2.00;;;;;;;-4.29;69.03;99754.59;5043374;28;20040;-60
2022/01/08 05:51:37;;;;;;;1.67;1.58;;;;;;;-4.19;68.92;99758.31;5043077;28;20065;-60
2022/01/08 05:54:03;;;;;;;3.20;1.60;;;;;;;-4.07;69.18;99765.53;5057649;28;20036;-60
2022/01/08 05:56:28;;;;;;;3.70;1.70;;;;;;;-4.00;69.93;99768.34;5057758;28;20052;-60
2022/01/08 05:58:54;;;;;;;2.40;1.90;;;;;;;-3.94;68.29;99769.41;5057502;28;20025;-60
2022/01/08 06:01:20;;;;;;;3.75;2.20;;;;;;;-3.91;68.66;99772.03;5055209;28;20037;-61
2022/01/08 06:03:46;;;;;;;2.33;1.90;;;;;;;-3.89;69.03;99775.47;5048392;28;20025;-60
2022/01/08 06:06:11;;;;;;;2.90;2.00;;;;;;;-3.89;68.56;99783.94;5057447;28;20290;-62
2022/01/08 06:08:37;;;;;;;5.32;2.83;;;;;;;-3.96;68.42;99783.63;5057630;28;20025;-62
2022/01/08 06:11:02;;;;;;;3.70;2.40;;;;;;;-3.86;69.88;99791.66;5057936;28;20199;-59
2022/01/08 06:13:28;;;;;;;2.75;2.28;;;;;;;-3.92;69.19;99780.41;5059834;28;20040;-61
2022/01/08 06:15:53;;;;;;;5.50;2.80;;;;;;;-3.96;70.15;99797.16;5059732;28;20029;-61
2022/01/08 06:18:19;;;;;;;3.67;2.72;;;;;;;-3.92;69.15;99800.66;5042554;28;20037;-61
2022/01/08 06:20:44;;;;;;;5.63;2.80;;;;;;;-3.95;69.39;99808.13;5054879;28;20039;-61
2022/01/08 06:23:10;;;;;;;4.15;2.88;;;;;;;-3.85;70.64;99821.22;5048270;28;20041;-60
2022/01/08 06:25:36;;;;;;;7.47;3.22;;;;;;;-3.81;69.43;99814.59;5043425;28;20186;-60
2022/01/08 06:28:01;;;;;;;4.97;2.80;;;;;;;-3.87;69.49;99816.88;5048135;28;20033;-61
2022/01/08 06:30:27;;;;;;;3.60;2.53;;;;;;;-3.79;68.45;99822.22;5057444;28;20316;-61
2022/01/08 06:32:53;;;;;;;3.47;1.92;;;;;;;-3.96;66.98;99819.03;5054081;28;20032;-61
2022/01/08 06:35:18;;;;;;;2.33;1.73;;;;;;;-3.96;66.67;99829.16;5057292;28;20022;-60
2022/01/08 06:37:44;;;;;;;3.72;2.40;;;;;;;-3.86;66.74;99841.38;5060104;28;20025;-61
2022/01/08 06:40:10;;;;;;;4.75;3.03;;;;;;;-3.87;68.01;99837.97;5042884;28;20226;-60
2022/01/08 06:42:36;;;;;;;3.78;2.38;;;;;;;-3.92;68.07;99847.06;5043212;28;20029;-60
2022/01/08 06:45:02;;;;;;;4.95;3.17;;;;;;;-3.79;67.94;99837.41;5054657;28;20033;-61
2022/01/08 06:47:29;;;;;;;7.97;3.75;;;;;;;-3.72;68.21;99842.78;5047935;28;20029;-60
2022/01/08 06:49:54;;;;;;;4.22;2.05;;;;;;;-3.66;67.68;99844.69;5049019;28;20021;-60
2022/01/08 06:52:20;;;;;;;4.30;2.53;;;;;;;-3.62;68.33;99849.03;5051937;28;20063;-60
2022/01/08 06:54:45;;;;;;;4.22;2.50;;;;;;;-3.56;67.76;99849.28;5045666;28;20055;-61
2022/01/08 06:57:11;;;;;;;3.78;2.45;;;;;;;-3.56;68.51;99848.41;5055701;28;20061;-61
2022/01/08 06:59:36;;;;;;;2.65;2.17;;;;;;;-3.68;69.25;99857.28;5042643;28;20025;-61
2022/01/08 07:02:02;;;;;;;5.05;2.17;;;;;;;-3.71;68.97;99857.13;5042046;28;20056;-61
2022/01/08 07:04:28;;;;;;;5.50;3.10;;;;;;;-3.52;69.25;99863.78;5041661;28;20029;-61
2022/01/08 07:06:53;;;;;;;3.95;2.22;;;;;;;-3.56;69.43;99867.00;5041374;28;20261;-61
2022/01/08 07:09:19;;;;;;;3.55;2.03;;;;;;;-3.69;71.44;99873.25;5052845;28;20032;-61
2022/01/08 07:11:44;;;;;;;3.55;2.17;;;;;;;-3.63;69.83;99877.69;5045801;28;20041;-60
2022/01/08 07:14:10;;;;;;;4.13;2.05;;;;;;;-3.55;70.31;99877.97;5042233;28;20041;-60
2022/01/08 07:16:35;;;;;;;5.50;2.50;;;;;;;-3.63;70.46;99877.69;5041878;28;20048;-60
2022/01/08 07:19:01;;;;;;;4.28;2.60;;;;;;;-3.59;71.01;99878.66;5045296;28;20033;-61
2022/01/08 07:21:26;;;;;;;3.85;2.38;;;;;;;-3.63;70.65;99870.09;5057200;28;20040;-60
2022/01/08 07:23:53;;;;;;;4.13;2.00;;;;;;;-3.53;71.42;99877.25;5043785;28;20025;-61
2022/01/08 07:26:19;;;;;;;4.95;2.20;;;;;;;-3.37;71.40;99867.69;5043388;28;20268;-60
2022/01/08 07:28:44;;;;;;;2.28;1.88;;;;;;;-3.38;71.17;99874.41;5058457;28;20041;-60
2022/01/08 07:31:10;;;;;;;5.85;1.88;;;;;;;-3.52;69.47;99870.50;5059868;28;20040;-61
2022/01/08 07:33:35;;;;;;;2.05;1.60;;;;;;;-3.45;67.14;99880.03;5040966;28;20030;-61
2022/01/08 07:36:01;;;;;;;2.40;1.50;;;;;;;-3.48;68.18;99893.47;5039773;28;20025;-61
2022/01/08 07:38:26;;;;;;;3.10;1.70;;;;;;;-3.62;66.82;99886.13;5044245;28;20028;-61
2022/01/08 07:40:52;;;;;;;1.33;1.15;;;;;;;-3.40;67.82;99890.38;5049453;28;20064;-61
2022/01/08 07:43:19;;;;;;;1.55;1.23;;;;;;;-3.37;66.88;99901.47;5060354;28;20021;-61
2022/01/08 07:45:45;;;;;;;1.60;1.40;;;;;;;-3.29;67.25;99901.78;5058972;28;20032;-60
2022/01/08 07:48:10;;;;;;;2.20;1.20;;;;;;;-3.52;66.58;99894.16;5062583;28;20018;-60
2022/01/08 07:50:36;;;;;;;1.60;1.27;;;;;;;-3.49;66.29;99899.34;5043995;28;20467;-60
2022/01/08 07:53:01;;;;;;;1.42;1.27;;;;;;;-3.44;67.09;99896.97;5046517;28;20107;-60
2022/01/08 07:55:27;;;;;;;1.27;1.10;;;;;;;-3.32;66.23;99904.16;5043452;28;20029;-60
2022/01/08 07:57:52;;;;;;;2.42;1.40;;;;;;;-3.28;65.50;99916.13;5045612;28;20097;-60
2022/01/08 08:00:18;;;;;;;1.85;1.38;;;;;;;-3.32;65.97;99917.69;5043950;28;20302;-61
2022/01/08 08:02:44;;;;;;;4.00;1.30;;;;;;;-3.17;66.85;99919.09;5044235;28;20302;-62
2022/01/08 08:05:10;;;;;;;1.35;1.25;;;;;;;-3.20;66.51;99929.09;5049825;28;20025;-61
2022/01/08 08:07:39;;;;;;;1.35;1.10;;;;;;;-3.23;66.69;99929.84;5059900;28;20199;-61
2022/01/08 08:10:17;;;;;;;6.72;1.60;;;;;;;-3.32;66.48;99947.22;5058504;28;20302;-61
2022/01/08 08:12:43;;;;;;;1.33;1.10;;;;;;;-3.39;66.38;99930.06;5045418;28;20322;-60
2022/01/08 08:15:11;;;;;;;2.20;1.60;;;;;;;-3.35;67.08;99949.63;5061098;28;20061;-61
2022/01/08 08:17:37;;;;;;;3.08;1.25;;;;;;;-3.41;67.79;99940.13;5062200;28;20270;-60
2022/01/08 08:20:04;;;;;;;2.33;1.30;;;;;;;-3.33;66.49;99970.81;5060004;28;20044;-61
2022/01/08 08:22:29;;;;;;;2.55;1.80;;;;;;;-3.41;66.69;99936.75;5045322;28;20048;-60
2022/01/08 08:24:55;;;;;;;3.95;1.70;;;;;;;-3.21;66.30;99945.09;5045065;28;20052;-60
2022/01/08 08:27:21;;;;;;;1.55;1.20;;;;;;;-3.13;65.89;99952.19;5054286;28;20340;-61
2022/01/08 08:29:47;;;;;;;4.30;1.70;;;;;;;-3.06;66.75;99952.44;5059507;28;20037;-61
2022/01/08 08:32:13;;;;;;;1.92;1.42;;;;;;;-2.87;66.42;99953.97;5059636;28;20029;-61
2022/01/08 08:34:38;;;;;;;2.95;1.67;;;;;;;-2.64;66.84;99950.63;5047972;28;20048;-61
2022/01/08 08:37:04;;;;;;;1.52;1.42;;;;;;;-2.93;66.65;99951.22;5045253;28;20029;-61
2022/01/08 08:39:30;;;;;;;2.80;1.45;;;;;;;-2.84;66.48;99956.63;5060110;28;20269;-62
2022/01/08 08:41:55;;;;;;;3.63;1.50;;;;;;;-2.68;66.61;99951.31;5061345;28;20048;-61
2022/01/08 08:44:21;;;;;;;3.53;1.48;;;;;;;-2.57;67.25;99954.22;5060647;28;20028;-62
2022/01/08 08:46:46;;;;;;;5.30;1.70;;;;;;;-2.43;65.98;99955.56;5058703;28;20066;-61
2022/01/08 08:49:12;;;;;;;2.22;1.70;;;;;;;-2.45;65.06;99956.34;5046568;28;20079;-61
2022/01/08 08:51:38;;;;;;;1.92;1.40;;;;;;;-2.65;65.71;99948.88;5050875;28;20234;-61
2022/01/08 08:54:03;;;;;;;2.25;1.38;;;;;;;-2.44;65.15;99958.03;5044364;28;20029;-61
2022/01/08 08:56:29;;;;;;;1.55;1.25;;;;;;;-2.47;64.02;99952.88;5044320;28;20021;-61
2022/01/08 08:58:55;;;;;;;2.53;1.40;;;;;;;-2.32;62.63;99950.88;5046883;28;20051;-62
2022/01/08 09:01:22;;;;;;;2.17;1.60;;;;;;;-2.52;63.05;99962.84;5058202;28;20071;-61
2022/01/08 09:03:47;;;;;;;5.05;1.70;;;;;;;-2.46;62.79;99959.69;5043356;28;20071;-62
2022/01/08 09:06:13;;;;;;;4.25;1.20;;;;;;;-2.56;62.60;99965.22;5060895;28;20037;-61
2022/01/08 09:08:39;;;;;;;3.92;1.50;;;;;;;-2.79;62.42;99958.50;5060027;28;20250;-61
2022/01/08 09:11:04;;;;;;;2.60;1.30;;;;;;;-2.65;63.57;99960.66;5045038;28;20053;-61
2022/01/08 09:13:30;;;;;;;2.08;1.38;;;;;;;-2.72;62.08;99964.69;5055188;28;20036;-61
2022/01/08 09:15:56;;;;;;;1.25;1.15;;;;;;;-2.74;63.32;99958.66;5058076;28;20025;-61
2022/01/08 09:18:22;;;;;;;1.85;1.33;;;;;;;-2.54;63.44;99976.28;5058004;28;20345;-61
2022/01/08 09:20:47;;;;;;;2.55;1.30;;;;;;;-2.42;63.41;99979.25;5058210;28;20087;-61
2022/01/08 09:23:13;;;;;;;5.00;1.77;;;;;;;-2.56;64.05;99983.84;5056758;28;20040;-61
2022/01/08 09:25:39;;;;;;;3.92;1.80;;;;;;;-2.46;63.45;99987.56;5045919;28;20033;-61
2022/01/08 09:28:05;;;;;;;2.85;1.77;;;;;;;-2.51;63.03;99981.44;5051056;28;20029;-63
2022/01/08 09:30:31;;;;;;;4.10;2.17;;;;;;;-2.49;63.59;99995.91;5042862;28;20093;-61
2022/01/08 09:32:56;;;;;;;4.85;2.05;;;;;;;-2.45;64.06;99995.22;5056863;28;20033;-61
2022/01/08 09:35:23;;;;;;;3.78;2.10;;;;;;;-2.38;64.60;99991.25;5057205;28;20186;-61
2022/01/08 09:37:49;;;;;;;2.70;2.05;;;;;;;-2.41;63.29;99983.50;5057837;28;20308;-61
2022/01/08 09:40:16;;;;;;;3.97;2.00;;;;;;;-2.34;63.51;100017.56;5047518;28;20059;-61
2022/01/08 09:42:43;;;;;;;2.92;2.15;;;;;;;-2.60;64.10;99987.91;5050540;28;20052;-61
2022/01/08 09:45:10;;;;;;;3.40;2.10;;;;;;;-2.59;63.65;99968.50;5057869;28;20037;-61
2022/01/08 09:47:36;;;;;;;3.15;1.90;;;;;;;-2.56;65.09;99977.91;5055022;28;20052;-60
2022/01/08 09:50:03;;;;;;;7.30;1.90;;;;;;;-2.43;64.73;99978.38;5044349;28;20071;-62
2022/01/08 09:52:30;;;;;;;2.22;1.67;;;;;;;-2.22;64.27;99982.50;5052800;28;20053;-60
2022/01/08 09:54:55;;;;;;;3.55;2.03;;;;;;;-2.14;64.72;99995.44;5060003;28;20295;-61
2022/01/08 09:57:21;;;;;;;2.35;1.50;;;;;;;-2.18;64.70;99998.66;5060365;28;20282;-61
2022/01/08 09:59:47;;;;;;;3.50;1.80;;;;;;;-2.17;63.51;99995.34;5056375;28;20033;-61
2022/01/08 10:02:12;;;;;;;2.58;1.83;;;;;;;-2.23;63.45;100003.59;5044693;28;20311;-62
2022/01/08 10:04:38;;;;;;;3.20;2.08;;;;;;;-2.22;62.80;100009.53;5043913;28;20021;-61
2022/01/08 10:07:24;;;;;;;2.88;1.55;;;;;;;-2.17;64.44;100020.69;5043573;28;20045;-62
2022/01/08 10:10:01;;;;;;;6.28;2.30;;;;;;;-2.34;64.73;100017.56;5043169;28;20282;-60
2022/01/08 10:12:55;;;;;;;4.20;1.90;;;;;;;-2.38;64.99;100014.06;5044387;28;20044;-61
2022/01/08 10:18:21;;;;;;;4.47;1.92;;;;;;;-2.52;65.37;100005.06;5043242;28;20034;-61
2022/01/08 10:20:50;;;;;;;4.82;1.90;;;;;;;-2.48;64.54;100025.53;5052401;28;20120;-60
2022/01/08 10:23:33;;;;;;;3.33;2.05;;;;;;;-2.95;63.85;99953.66;5050031;28;20048;-61
2022/01/08 10:26:06;;;;;;;3.53;1.98;;;;;;;-2.47;65.38;100029.78;5051022;28;20037;-62
2022/01/08 10:28:49;;;;;;;4.22;2.00;;;;;;;-2.67;65.36;100043.41;5056996;28;20025;-62
2022/01/08 10:31:21;;;;;;;4.05;2.22;;;;;;;-2.54;65.68;100037.13;5054456;28;20040;-61
2022/01/08 10:33:50;;;;;;;3.13;1.90;;;;;;;-2.63;65.64;100022.44;5047837;28;20028;-61
2022/01/08 10:36:28;;;;;;;3.80;1.65;;;;;;;-2.62;65.86;100035.16;5057080;28;20061;-61
2022/01/08 10:38:55;;;;;;;3.20;2.03;;;;;;;-2.63;65.96;100051.19;5054245;28;20353;-62
2022/01/08 10:41:22;;;;;;;4.18;1.90;;;;;;;-2.64;66.13;100033.38;5042554;28;20034;-60
2022/01/08 10:43:48;;;;;;;4.47;1.70;;;;;;;-2.74;65.95;100013.56;5057319;28;20068;-60
2022/01/08 10:46:18;;;;;;;4.50;1.98;;;;;;;-2.72;66.63;100022.09;5059701;28;20329;-60
2022/01/08 10:48:47;;;;;;;3.53;1.95;;;;;;;-2.58;67.29;100040.34;5059610;28;20033;-60
2022/01/08 10:51:25;;;;;;;2.75;2.00;;;;;;;-2.70;67.04;100008.66;5043121;28;20037;-61
2022/01/08 10:54:01;;;;;;;3.95;1.80;;;;;;;-2.65;67.78;100026.56;5057006;28;20037;-61
2022/01/08 10:56:32;;;;;;;4.68;2.30;;;;;;;-2.53;66.83;100043.94;5043195;28;20045;-61
2022/01/08 10:59:07;;;;;;;3.58;2.10;;;;;;;-2.75;67.25;100034.66;5058196;28;20037;-61
2022/01/08 11:01:44;;;;;;;3.30;1.70;;;;;;;-2.84;66.91;100040.22;5056918;28;20025;-62
2022/01/08 11:04:13;;;;;;;2.30;1.60;;;;;;;-3.18;66.56;100008.53;5056498;28;20060;-61
2022/01/08 11:07:20;;;;;;;4.72;2.03;;;;;;;-2.91;66.97;100046.72;5061161;28;20029;-61
2022/01/08 11:09:48;;;;;;;2.15;1.70;;;;;;;-2.98;66.89;100040.56;5052929;28;20171;-61
2022/01/08 11:12:17;;;;;;;3.65;1.85;;;;;;;-2.97;66.40;100072.69;5060846;28;20040;-60
2022/01/08 11:17:38;;;;;;;3.50;1.73;;;;;;;-2.93;67.17;100043.28;5054083;28;20025;-60
2022/01/08 11:20:19;;;;;;;4.60;2.60;;;;;;;-3.24;67.44;99985.50;5042714;28;20114;-60
2022/01/08 11:22:53;;;;;;;3.50;2.20;;;;;;;-2.87;67.42;100055.31;5058163;28;20035;-60
2022/01/08 11:25:32;;;;;;;4.82;2.10;;;;;;;-3.14;67.41;99975.78;5046477;28;20037;-60
2022/01/08 11:28:19;;;;;;;4.28;2.13;;;;;;;-2.82;67.22;100048.75;5046729;28;20029;-60
2022/01/08 11:30:56;;;;;;;2.97;2.53;;;;;;;-2.80;67.72;100062.34;5045730;28;20041;-60
2022/01/08 11:33:34;;;;;;;6.43;2.47;;;;;;;-2.69;67.78;100056.03;5046000;28;20048;-60
2022/01/08 11:36:00;;;;;;;4.20;2.40;;;;;;;-2.59;67.03;100059.78;5044989;28;20037;-60
2022/01/08 11:38:27;;;;;;;4.97;2.70;;;;;;;-2.92;66.63;99999.41;5045577;28;20321;-60
2022/01/08 11:40:58;;;;;;;5.68;2.40;;;;;;;-2.53;66.20;100075.22;5045984;28;20297;-61
2022/01/08 11:43:27;;;;;;;6.55;2.45;;;;;;;-2.82;66.72;100018.34;5046122;28;20052;-60
2022/01/08 11:45:55;;;;;;;7.05;2.75;;;;;;;-2.51;66.58;100072.72;5045253;28;20029;-60
2022/01/08 11:48:39;;;;;;;4.53;2.22;;;;;;;-2.40;65.69;100078.22;5044872;28;20031;-60
2022/01/08 11:51:06;;;;;;;4.55;3.00;;;;;;;-2.42;67.45;100073.09;5045082;28;20040;-60
2022/01/08 11:53:44;;;;;;;3.40;2.30;;;;;;;-2.81;67.20;100015.00;5062382;28;20055;-59
2022/01/08 11:56:23;;;;;;;5.97;2.80;;;;;;;-2.69;66.38;100020.53;5045856;28;20052;-60
2022/01/08 11:59:10;;;;;;;5.80;2.60;;;;;;;-2.35;67.26;100080.13;5043989;28;20037;-59